Rio Pico, Argentina
Current Conditions -  °F | °C
As of 6:00 AM on Monday 22 Dec 2014 (Local Time) from SCAP Reporting Station
Few Clouds Few Clouds  
Wind Chill:   Ceiling: Unl
Heat Index:   Visibility: NA
Dew Point:   Wind: 2mph
Humidity: 81%   Direction: NA
Pressure: 30.42"   Gusts: NA
Location:  44.2°S, 71.35°W
Report Text: SCAP 220900Z AUTO VRB02KT //// // FEW021 06/03 Q1030
Loading
Personal Weather Stations






























Interactive Weather Map New forecast layout! Learn more

10-Day Weather Forecast

Advertisements
Track Severe Weather on mobile